sensor_id;sensor_type;location;lat;lon;timestamp;pressure;altitude;pressure_sealevel;temperature;humidity
11099;BME280;12223;42.650;23.364;2024-03-06T00:01:51;94556.75;;;22.07;56.51
11099;BME280;12223;42.650;23.364;2024-03-06T00:04:16;94549.06;;;22.01;56.67
11099;BME280;12223;42.650;23.364;2024-03-06T00:06:41;94549.81;;;22.02;57.11
11099;BME280;12223;42.650;23.364;2024-03-06T00:09:07;94555.72;;;21.99;56.45
11099;BME280;12223;42.650;23.364;2024-03-06T00:11:34;94551.88;;;21.96;56.37
11099;BME280;12223;42.650;23.364;2024-03-06T00:14:02;94552.94;;;21.95;56.99
11099;BME280;12223;42.650;23.364;2024-03-06T00:16:27;94550.91;;;21.92;56.92
11099;BME280;12223;42.650;23.364;2024-03-06T00:18:53;94548.47;;;21.96;57.06
11099;BME280;12223;42.650;23.364;2024-03-06T00:21:18;94553.38;;;21.97;57.17
11099;BME280;12223;42.650;23.364;2024-03-06T00:23:43;94557.88;;;21.97;56.57
11099;BME280;12223;42.650;23.364;2024-03-06T00:26:11;94553.38;;;21.97;57.02
11099;BME280;12223;42.650;23.364;2024-03-06T00:28:38;94545.97;;;21.99;56.97
11099;BME280;12223;42.650;23.364;2024-03-06T00:31:05;94552.75;;;22.00;56.82
11099;BME280;12223;42.650;23.364;2024-03-06T00:33:30;94557.38;;;22.03;56.03
11099;BME280;12223;42.650;23.364;2024-03-06T00:35:56;94554.44;;;22.05;56.56
11099;BME280;12223;42.650;23.364;2024-03-06T00:38:21;94547.75;;;22.08;56.58
11099;BME280;12223;42.650;23.364;2024-03-06T00:40:46;94553.78;;;22.08;56.38
11099;BME280;12223;42.650;23.364;2024-03-06T00:43:12;94545.47;;;22.06;55.55
11099;BME280;12223;42.650;23.364;2024-03-06T00:45:37;94557.84;;;22.06;56.00
11099;BME280;12223;42.650;23.364;2024-03-06T00:48:03;94552.47;;;22.02;55.31
11099;BME280;12223;42.650;23.364;2024-03-06T00:50:28;94556.47;;;21.99;55.47
11099;BME280;12223;42.650;23.364;2024-03-06T00:52:54;94550.75;;;21.97;55.47
11099;BME280;12223;42.650;23.364;2024-03-06T00:55:19;94549.53;;;21.95;55.71
11099;BME280;12223;42.650;23.364;2024-03-06T00:57:45;94545.63;;;21.92;55.40
11099;BME280;12223;42.650;23.364;2024-03-06T01:00:11;94545.97;;;21.91;55.43
11099;BME280;12223;42.650;23.364;2024-03-06T01:02:39;94554.03;;;21.94;55.98
11099;BME280;12223;42.650;23.364;2024-03-06T01:05:05;94551.53;;;21.89;56.33
11099;BME280;12223;42.650;23.364;2024-03-06T01:07:32;94561.63;;;21.96;55.57
11099;BME280;12223;42.650;23.364;2024-03-06T01:09:57;94567.78;;;22.00;55.84
11099;BME280;12223;42.650;23.364;2024-03-06T01:12:24;94560.66;;;22.00;55.88
11099;BME280;12223;42.650;23.364;2024-03-06T01:14:49;94561.09;;;22.02;55.66
11099;BME280;12223;42.650;23.364;2024-03-06T01:17:15;94564.19;;;22.04;54.81
11099;BME280;12223;42.650;23.364;2024-03-06T01:19:40;94571.00;;;22.06;55.22
11099;BME280;12223;42.650;23.364;2024-03-06T01:22:08;94563.88;;;22.06;55.57
11099;BME280;12223;42.650;23.364;2024-03-06T01:24:34;94563.53;;;22.08;55.38
11099;BME280;12223;42.650;23.364;2024-03-06T01:26:59;94563.13;;;22.06;55.34
11099;BME280;12223;42.650;23.364;2024-03-06T01:29:27;94561.88;;;22.03;54.87
11099;BME280;12223;42.650;23.364;2024-03-06T01:31:53;94556.16;;;21.92;54.67
11099;BME280;12223;42.650;23.364;2024-03-06T01:34:19;94561.16;;;21.94;55.36
11099;BME280;12223;42.650;23.364;2024-03-06T01:36:44;94561.00;;;21.90;55.23
11099;BME280;12223;42.650;23.364;2024-03-06T01:39:10;94560.53;;;21.88;54.72
11099;BME280;12223;42.650;23.364;2024-03-06T01:41:35;94558.06;;;21.83;55.47
11099;BME280;12223;42.650;23.364;2024-03-06T01:44:01;94556.97;;;21.84;55.10
11099;BME280;12223;42.650;23.364;2024-03-06T01:46:28;94555.91;;;21.85;55.66
11099;BME280;12223;42.650;23.364;2024-03-06T01:48:54;94556.97;;;21.84;55.04
11099;BME280;12223;42.650;23.364;2024-03-06T01:51:19;94560.81;;;21.87;55.82
11099;BME280;12223;42.650;23.364;2024-03-06T01:53:45;94561.94;;;21.86;55.30
11099;BME280;12223;42.650;23.364;2024-03-06T01:56:10;94557.44;;;21.86;55.39
11099;BME280;12223;42.650;23.364;2024-03-06T01:58:40;94563.78;;;21.85;55.62
11099;BME280;12223;42.650;23.364;2024-03-06T02:01:06;94559.75;;;21.88;54.70
11099;BME280;12223;42.650;23.364;2024-03-06T02:03:32;94556.34;;;21.87;55.06
11099;BME280;12223;42.650;23.364;2024-03-06T02:05:59;94551.53;;;21.89;55.11
11099;BME280;12223;42.650;23.364;2024-03-06T02:08:27;94556.94;;;21.93;55.14
11099;BME280;12223;42.650;23.364;2024-03-06T02:10:52;94556.94;;;21.93;54.39
11099;BME280;12223;42.650;23.364;2024-03-06T02:13:17;94564.06;;;21.92;54.12
11099;BME280;12223;42.650;23.364;2024-03-06T02:15:44;94562.06;;;21.89;54.60
11099;BME280;12223;42.650;23.364;2024-03-06T02:18:10;94565.34;;;21.86;54.27
11099;BME280;12223;42.650;23.364;2024-03-06T02:20:38;94569.66;;;21.82;55.12
11099;BME280;12223;42.650;23.364;2024-03-06T02:23:05;94569.22;;;21.80;54.61
11099;BME280;12223;42.650;23.364;2024-03-06T02:25:31;94574.03;;;21.78;54.18
11099;BME280;12223;42.650;23.364;2024-03-06T02:27:56;94570.19;;;21.76;54.43
11099;BME280;12223;42.650;23.364;2024-03-06T02:30:21;94579.91;;;21.75;54.16
11099;BME280;12223;42.650;23.364;2024-03-06T02:32:47;94586.69;;;21.76;55.14
11099;BME280;12223;42.650;23.364;2024-03-06T02:35:12;94587.03;;;21.75;54.71
11099;BME280;12223;42.650;23.364;2024-03-06T02:37:40;94581.78;;;21.75;54.89
11099;BME280;12223;42.650;23.364;2024-03-06T02:40:06;94583.00;;;21.77;55.32
11099;BME280;12223;42.650;23.364;2024-03-06T02:42:32;94585.63;;;21.77;55.12
11099;BME280;12223;42.650;23.364;2024-03-06T02:44:58;94587.94;;;21.79;55.13
11099;BME280;12223;42.650;23.364;2024-03-06T02:47:23;94572.03;;;21.75;54.90
11099;BME280;12223;42.650;23.364;2024-03-06T02:49:49;94583.47;;;21.79;54.48
11099;BME280;12223;42.650;23.364;2024-03-06T02:52:15;94583.75;;;21.78;54.00
11099;BME280;12223;42.650;23.364;2024-03-06T02:54:43;94587.63;;;21.80;54.44
11099;BME280;12223;42.650;23.364;2024-03-06T02:57:08;94584.84;;;21.85;54.17
11099;BME280;12223;42.650;23.364;2024-03-06T02:59:34;94586.22;;;21.83;54.08
11099;BME280;12223;42.650;23.364;2024-03-06T03:01:59;94585.91;;;21.84;54.04
11099;BME280;12223;42.650;23.364;2024-03-06T03:04:25;94585.78;;;21.81;54.21
11099;BME280;12223;42.650;23.364;2024-03-06T03:06:51;94588.25;;;21.77;54.12
11099;BME280;12223;42.650;23.364;2024-03-06T03:09:17;94586.88;;;21.71;53.72
11099;BME280;12223;42.650;23.364;2024-03-06T03:11:43;94589.84;;;21.70;54.48
11099;BME280;12223;42.650;23.364;2024-03-06T03:14:09;94597.72;;;21.70;53.98
11099;BME280;12223;42.650;23.364;2024-03-06T03:16:35;94595.41;;;21.68;54.83
11099;BME280;12223;42.650;23.364;2024-03-06T03:19:01;94601.75;;;21.67;54.29
11099;BME280;12223;42.650;23.364;2024-03-06T03:21:26;94590.78;;;21.65;53.98
11099;BME280;12223;42.650;23.364;2024-03-06T03:23:52;94598.34;;;21.67;54.68
11099;BME280;12223;42.650;23.364;2024-03-06T03:26:17;94599.44;;;21.66;53.73
11099;BME280;12223;42.650;23.364;2024-03-06T03:28:43;94601.75;;;21.67;54.42
11099;BME280;12223;42.650;23.364;2024-03-06T03:31:08;94607.47;;;21.69;53.95
11099;BME280;12223;42.650;23.364;2024-03-06T03:33:35;94593.41;;;21.65;54.74
11099;BME280;12223;42.650;23.364;2024-03-06T03:36:04;94608.69;;;21.72;54.18
11099;BME280;12223;42.650;23.364;2024-03-06T03:38:30;94606.84;;;21.72;53.73
11099;BME280;12223;42.650;23.364;2024-03-06T03:40:56;94592.00;;;21.68;54.17
11099;BME280;12223;42.650;23.364;2024-03-06T03:43:21;94599.84;;;21.76;54.20
11099;BME280;12223;42.650;23.364;2024-03-06T03:45:47;94608.22;;;21.78;53.73
11099;BME280;12223;42.650;23.364;2024-03-06T03:48:12;94611.31;;;21.80;53.70
11099;BME280;12223;42.650;23.364;2024-03-06T03:50:37;94608.22;;;21.78;53.53
11099;BME280;12223;42.650;23.364;2024-03-06T03:53:03;94608.53;;;21.77;53.88
11099;BME280;12223;42.650;23.364;2024-03-06T03:55:29;94614.13;;;21.75;54.20
11099;BME280;12223;42.650;23.364;2024-03-06T03:57:54;94605.63;;;21.70;53.77
11099;BME280;12223;42.650;23.364;2024-03-06T04:00:20;94605.44;;;21.66;54.09
11099;BME280;12223;42.650;23.364;2024-03-06T04:02:45;94608.72;;;21.63;53.56
11099;BME280;12223;42.650;23.364;2024-03-06T04:05:11;94619.53;;;21.61;54.26
11099;BME280;12223;42.650;23.364;2024-03-06T04:07:37;94616.47;;;21.59;54.20
11099;BME280;12223;42.650;23.364;2024-03-06T04:10:03;94616.78;;;21.58;53.67
11099;BME280;12223;42.650;23.364;2024-03-06T04:12:29;94622.81;;;21.58;54.07
11099;BME280;12223;42.650;23.364;2024-03-06T04:14:54;94625.13;;;21.60;53.74
11099;BME280;12223;42.650;23.364;2024-03-06T04:17:20;94629.28;;;21.61;54.39
11099;BME280;12223;42.650;23.364;2024-03-06T04:19:45;94638.72;;;21.62;53.73
11099;BME280;12223;42.650;23.364;2024-03-06T04:22:13;94636.56;;;21.64;53.99
11099;BME280;12223;42.650;23.364;2024-03-06T04:24:41;94638.91;;;21.66;54.12
11099;BME280;12223;42.650;23.364;2024-03-06T04:27:07;94643.03;;;21.67;53.45
11099;BME280;12223;42.650;23.364;2024-03-06T04:29:33;94641.97;;;21.68;53.93
11099;BME280;12223;42.650;23.364;2024-03-06T04:31:58;94643.50;;;21.69;53.53
11099;BME280;12223;42.650;23.364;2024-03-06T04:34:24;94639.47;;;21.71;53.50
11099;BME280;12223;42.650;23.364;2024-03-06T04:36:49;94648.59;;;21.74;53.11
11099;BME280;12223;42.650;23.364;2024-03-06T04:39:15;94647.84;;;21.73;52.72
11099;BME280;12223;42.650;23.364;2024-03-06T04:41:40;94642.09;;;21.71;53.50
11099;BME280;12223;42.650;23.364;2024-03-06T04:44:05;94644.28;;;21.69;52.58
11099;BME280;12223;42.650;23.364;2024-03-06T04:46:31;94643.03;;;21.67;53.67
11099;BME280;12223;42.650;23.364;2024-03-06T04:48:56;94650.31;;;21.61;53.64
11099;BME280;12223;42.650;23.364;2024-03-06T04:51:22;94651.44;;;21.60;54.01
11099;BME280;12223;42.650;23.364;2024-03-06T04:53:48;94646.00;;;21.56;53.00
11099;BME280;12223;42.650;23.364;2024-03-06T04:56:13;94646.63;;;21.53;53.06
11099;BME280;12223;42.650;23.364;2024-03-06T04:58:40;94657.28;;;21.57;53.46
11099;BME280;12223;42.650;23.364;2024-03-06T05:01:05;94657.28;;;21.57;53.94
11099;BME280;12223;42.650;23.364;2024-03-06T05:03:31;94658.06;;;21.57;53.17
11099;BME280;12223;42.650;23.364;2024-03-06T05:05:57;94656.06;;;21.54;53.89
11099;BME280;12223;42.650;23.364;2024-03-06T05:08:22;94658.38;;;21.56;53.55
11099;BME280;12223;42.650;23.364;2024-03-06T05:10:48;94662.72;;;21.60;53.50
11099;BME280;12223;42.650;23.364;2024-03-06T05:13:13;94663.03;;;21.59;53.24
11099;BME280;12223;42.650;23.364;2024-03-06T05:15:39;94670.28;;;21.62;53.96
11099;BME280;12223;42.650;23.364;2024-03-06T05:18:05;94669.03;;;21.68;53.73
11099;BME280;12223;42.650;23.364;2024-03-06T05:20:30;94663.75;;;21.77;53.69
11099;BME280;12223;42.650;23.364;2024-03-06T05:22:56;94665.47;;;21.81;53.28
11099;BME280;12223;42.650;23.364;2024-03-06T05:25:22;94664.84;;;21.84;53.66
11099;BME280;12223;42.650;23.364;2024-03-06T05:27:47;94670.09;;;21.84;53.35
11099;BME280;12223;42.650;23.364;2024-03-06T05:30:13;94663.44;;;21.78;53.78
11099;BME280;12223;42.650;23.364;2024-03-06T05:32:40;94671.97;;;21.75;54.45
11099;BME280;12223;42.650;23.364;2024-03-06T05:35:07;94669.00;;;21.77;53.58
11099;BME280;12223;42.650;23.364;2024-03-06T05:37:35;94660.97;;;21.73;54.32
11099;BME280;12223;42.650;23.364;2024-03-06T05:40:00;94677.38;;;21.79;55.43
11099;BME280;12223;42.650;23.364;2024-03-06T05:42:25;94683.25;;;21.84;55.69
11099;BME280;12223;42.650;23.364;2024-03-06T05:44:51;94697.13;;;21.93;55.05
11099;BME280;12223;42.650;23.364;2024-03-06T05:47:19;94688.81;;;22.00;55.71
11099;BME280;12223;42.650;23.364;2024-03-06T05:49:45;94695.88;;;22.08;55.38
11099;BME280;12223;42.650;23.364;2024-03-06T05:52:10;94694.94;;;22.13;54.82
11099;BME280;12223;42.650;23.364;2024-03-06T05:54:36;94693.09;;;22.13;53.73
11099;BME280;12223;42.650;23.364;2024-03-06T05:57:02;94698.22;;;22.10;54.42
11099;BME280;12223;42.650;23.364;2024-03-06T05:59:28;94692.22;;;22.00;54.11
11099;BME280;12223;42.650;23.364;2024-03-06T06:01:54;94696.22;;;21.98;53.77
11099;BME280;12223;42.650;23.364;2024-03-06T06:04:20;94695.31;;;21.94;54.42
11099;BME280;12223;42.650;23.364;2024-03-06T06:06:45;94701.34;;;21.94;53.91
11099;BME280;12223;42.650;23.364;2024-03-06T06:09:10;94706.63;;;21.94;54.83
11099;BME280;12223;42.650;23.364;2024-03-06T06:11:42;94705.38;;;22.00;54.52
11099;BME280;12223;42.650;23.364;2024-03-06T06:14:08;94707.53;;;22.07;54.58
11099;BME280;12223;42.650;23.364;2024-03-06T06:16:39;94702.22;;;22.16;53.87
11099;BME280;12223;42.650;23.364;2024-03-06T06:19:06;94711.03;;;22.20;54.01
11099;BME280;12223;42.650;23.364;2024-03-06T06:21:32;94703.91;;;22.20;53.13
11099;BME280;12223;42.650;23.364;2024-03-06T06:23:58;94696.19;;;22.15;53.06
11099;BME280;12223;42.650;23.364;2024-03-06T06:26:23;94702.41;;;22.11;53.10
11099;BME280;12223;42.650;23.364;2024-03-06T06:28:49;94702.72;;;22.09;53.30
11099;BME280;12223;42.650;23.364;2024-03-06T06:31:14;94711.69;;;22.08;53.36
11099;BME280;12223;42.650;23.364;2024-03-06T06:33:40;94698.09;;;22.06;53.29
11099;BME280;12223;42.650;23.364;2024-03-06T06:36:06;94701.31;;;22.12;53.03
11099;BME280;12223;42.650;23.364;2024-03-06T06:38:31;94697.28;;;22.14;53.53
11099;BME280;12223;42.650;23.364;2024-03-06T06:40:56;94702.50;;;22.23;53.94
11099;BME280;12223;42.650;23.364;2024-03-06T06:43:22;94700.47;;;22.28;53.02
11099;BME280;12223;42.650;23.364;2024-03-06T06:45:47;94695.38;;;22.32;53.46
11099;BME280;12223;42.650;23.364;2024-03-06T06:48:12;94693.78;;;22.39;53.12
11099;BME280;12223;42.650;23.364;2024-03-06T06:50:38;94695.44;;;22.44;53.51
11099;BME280;12223;42.650;23.364;2024-03-06T06:53:04;94710.47;;;22.52;52.39
11099;BME280;12223;42.650;23.364;2024-03-06T06:55:29;94708.41;;;22.58;52.06
11099;BME280;12223;42.650;23.364;2024-03-06T06:57:55;94713.03;;;22.61;52.79
11099;BME280;12223;42.650;23.364;2024-03-06T07:00:21;94706.56;;;22.58;52.06
11099;BME280;12223;42.650;23.364;2024-03-06T07:02:48;94719.72;;;22.58;51.88
11099;BME280;12223;42.650;23.364;2024-03-06T07:05:14;94714.63;;;22.53;51.78
11099;BME280;12223;42.650;23.364;2024-03-06T07:07:40;94716.50;;;22.53;52.49
11099;BME280;12223;42.650;23.364;2024-03-06T07:10:06;94710.47;;;22.52;52.43
11099;BME280;12223;42.650;23.364;2024-03-06T07:12:32;94714.63;;;22.53;52.23
11099;BME280;12223;42.650;23.364;2024-03-06T07:14:58;94712.00;;;22.53;52.80
11099;BME280;12223;42.650;23.364;2024-03-06T07:17:24;94703.94;;;22.58;53.33
11099;BME280;12223;42.650;23.364;2024-03-06T07:19:50;94710.72;;;22.59;52.07
11099;BME280;12223;42.650;23.364;2024-03-06T07:22:17;94708.56;;;22.61;49.31
11099;BME280;12223;42.650;23.364;2024-03-06T07:24:43;94714.47;;;22.58;41.58
11099;BME280;12223;42.650;23.364;2024-03-06T07:27:09;94710.16;;;22.45;42.92
11099;BME280;12223;42.650;23.364;2024-03-06T07:29:35;94710.34;;;22.40;44.13
11099;BME280;12223;42.650;23.364;2024-03-06T07:32:01;94705.13;;;22.31;34.81
11099;BME280;12223;42.650;23.364;2024-03-06T07:34:26;94707.38;;;20.52;31.38
11099;BME280;12223;42.650;23.364;2024-03-06T07:36:52;94702.75;;;20.18;33.03
11099;BME280;12223;42.650;23.364;2024-03-06T07:39:21;94707.44;;;18.83;36.25
11099;BME280;12223;42.650;23.364;2024-03-06T07:41:47;94713.88;;;18.63;37.36
11099;BME280;12223;42.650;23.364;2024-03-06T07:44:12;94713.44;;;18.42;38.29
11099;BME280;12223;42.650;23.364;2024-03-06T07:46:38;94708.28;;;17.96;38.21
11099;BME280;12223;42.650;23.364;2024-03-06T07:49:03;94705.69;;;17.08;39.11
11099;BME280;12223;42.650;23.364;2024-03-06T07:51:30;94709.34;;;16.88;41.75
11099;BME280;12223;42.650;23.364;2024-03-06T07:53:56;94716.66;;;16.67;39.39
11099;BME280;12223;42.650;23.364;2024-03-06T07:56:23;94710.31;;;16.73;42.54
11099;BME280;12223;42.650;23.364;2024-03-06T07:58:48;94707.53;;;16.41;40.60
11099;BME280;12223;42.650;23.364;2024-03-06T08:01:15;94703.53;;;16.25;42.73
11099;BME280;12223;42.650;23.364;2024-03-06T08:03:40;94710.50;;;16.53;43.90
11099;BME280;12223;42.650;23.364;2024-03-06T08:06:09;94712.44;;;16.71;42.90
11099;BME280;12223;42.650;23.364;2024-03-06T08:08:36;94710.59;;;16.72;41.44
11099;BME280;12223;42.650;23.364;2024-03-06T08:11:02;94717.13;;;16.69;42.62
11099;BME280;12223;42.650;23.364;2024-03-06T08:13:27;94717.25;;;16.59;42.19
11099;BME280;12223;42.650;23.364;2024-03-06T08:15:53;94717.28;;;16.54;43.08
11099;BME280;12223;42.650;23.364;2024-03-06T08:18:18;94716.28;;;16.50;42.93
11099;BME280;12223;42.650;23.364;2024-03-06T08:20:44;94720.78;;;16.44;41.78
11099;BME280;12223;42.650;23.364;2024-03-06T08:23:09;94717.41;;;16.44;45.65
11099;BME280;12223;42.650;23.364;2024-03-06T08:25:37;94718.97;;;16.69;44.36
11099;BME280;12223;42.650;23.364;2024-03-06T08:28:03;94711.03;;;16.97;50.46
11099;BME280;12223;42.650;23.364;2024-03-06T08:30:29;94715.00;;;17.32;51.52
11099;BME280;12223;42.650;23.364;2024-03-06T08:32:56;94708.84;;;17.61;48.18
11099;BME280;12223;42.650;23.364;2024-03-06T08:35:21;94706.44;;;17.97;49.70
11099;BME280;12223;42.650;23.364;2024-03-06T08:37:49;94697.94;;;18.32;50.71
11099;BME280;12223;42.650;23.364;2024-03-06T08:40:16;94709.22;;;18.74;49.89
11099;BME280;12223;42.650;23.364;2024-03-06T08:42:45;94708.47;;;19.09;50.04
11099;BME280;12223;42.650;23.364;2024-03-06T08:45:12;94715.06;;;19.42;49.02
11099;BME280;12223;42.650;23.364;2024-03-06T08:47:38;94708.38;;;19.72;49.12
11099;BME280;12223;42.650;23.364;2024-03-06T08:50:03;94715.00;;;20.01;49.32
11099;BME280;12223;42.650;23.364;2024-03-06T08:52:29;94710.50;;;20.23;48.13
11099;BME280;12223;42.650;23.364;2024-03-06T08:54:56;94707.50;;;20.39;43.44
11099;BME280;12223;42.650;23.364;2024-03-06T08:57:21;94706.59;;;20.43;41.36
11099;BME280;12223;42.650;23.364;2024-03-06T08:59:47;94711.06;;;20.43;40.40
11099;BME280;12223;42.650;23.364;2024-03-06T09:02:14;94695.28;;;20.34;39.35
11099;BME280;12223;42.650;23.364;2024-03-06T09:04:41;94704.09;;;20.38;40.81
11099;BME280;12223;42.650;23.364;2024-03-06T09:07:07;94705.38;;;20.41;41.64
11099;BME280;12223;42.650;23.364;2024-03-06T09:09:34;94710.06;;;20.61;42.06
11099;BME280;12223;42.650;23.364;2024-03-06T09:12:06;94709.78;;;20.79;43.09
11099;BME280;12223;42.650;23.364;2024-03-06T09:14:36;94710.91;;;20.96;43.94
11099;BME280;12223;42.650;23.364;2024-03-06T09:17:01;94717.88;;;21.09;43.73
11099;BME280;12223;42.650;23.364;2024-03-06T09:19:28;94707.88;;;21.19;44.23
11099;BME280;12223;42.650;23.364;2024-03-06T09:21:53;94702.47;;;21.33;43.53
11099;BME280;12223;42.650;23.364;2024-03-06T09:24:21;94709.41;;;21.46;43.71
11099;BME280;12223;42.650;23.364;2024-03-06T09:26:47;94706.19;;;21.58;44.00
11099;BME280;12223;42.650;23.364;2024-03-06T09:29:14;94709.41;;;21.72;44.46
11099;BME280;12223;42.650;23.364;2024-03-06T09:31:39;94697.03;;;21.81;44.04
11099;BME280;12223;42.650;23.364;2024-03-06T09:34:05;94699.50;;;21.95;43.69
11099;BME280;12223;42.650;23.364;2024-03-06T09:36:30;94702.56;;;22.06;42.93
11099;BME280;12223;42.650;23.364;2024-03-06T09:38:58;94699.31;;;22.09;43.42
11099;BME280;12223;42.650;23.364;2024-03-06T09:41:24;94704.56;;;22.17;42.98
11099;BME280;12223;42.650;23.364;2024-03-06T09:43:49;94706.50;;;22.29;42.71
11099;BME280;12223;42.650;23.364;2024-03-06T09:46:15;94685.44;;;22.29;39.45
11099;BME280;12223;42.650;23.364;2024-03-06T09:48:46;94689.03;;;22.33;40.48
11099;BME280;12223;42.650;23.364;2024-03-06T09:51:12;94691.81;;;22.28;35.84
11099;BME280;12223;42.650;23.364;2024-03-06T09:53:41;94688.78;;;22.09;32.56
11099;BME280;12223;42.650;23.364;2024-03-06T09:56:09;94679.69;;;21.80;35.18
11099;BME280;12223;42.650;23.364;2024-03-06T09:58:35;94684.66;;;21.73;36.97
11099;BME280;12223;42.650;23.364;2024-03-06T10:01:01;94678.19;;;21.71;37.60
11099;BME280;12223;42.650;23.364;2024-03-06T10:03:32;94676.00;;;21.81;38.44
11099;BME280;12223;42.650;23.364;2024-03-06T10:06:01;94672.41;;;21.86;39.17
11099;BME280;12223;42.650;23.364;2024-03-06T10:08:26;94673.03;;;21.91;39.67
11099;BME280;12223;42.650;23.364;2024-03-06T10:10:53;94670.84;;;21.93;39.76
11099;BME280;12223;42.650;23.364;2024-03-06T10:13:23;94670.09;;;22.01;40.32
11099;BME280;12223;42.650;23.364;2024-03-06T10:16:01;94662.47;;;22.09;39.80
11099;BME280;12223;42.650;23.364;2024-03-06T10:18:28;94661.19;;;22.15;41.16
11099;BME280;12223;42.650;23.364;2024-03-06T10:20:54;94660.53;;;22.26;41.61
11099;BME280;12223;42.650;23.364;2024-03-06T10:23:19;94660.97;;;22.37;42.29
11099;BME280;12223;42.650;23.364;2024-03-06T10:25:47;94662.78;;;22.45;42.44
11099;BME280;12223;42.650;23.364;2024-03-06T10:28:17;94652.72;;;22.47;42.72
11099;BME280;12223;42.650;23.364;2024-03-06T10:30:43;94659.78;;;22.55;42.95
11099;BME280;12223;42.650;23.364;2024-03-06T10:33:10;94652.66;;;22.56;42.92
11099;BME280;12223;42.650;23.364;2024-03-06T10:35:36;94655.22;;;22.64;42.30
11099;BME280;12223;42.650;23.364;2024-03-06T10:38:06;94652.44;;;22.69;42.30
11099;BME280;12223;42.650;23.364;2024-03-06T10:40:35;94652.91;;;22.71;42.96
11099;BME280;12223;42.650;23.364;2024-03-06T10:43:01;94645.91;;;22.75;41.60
11099;BME280;12223;42.650;23.364;2024-03-06T10:45:47;94644.63;;;22.81;41.81
11099;BME280;12223;42.650;23.364;2024-03-06T10:48:14;94637.75;;;22.89;42.17
11099;BME280;12223;42.650;23.364;2024-03-06T10:50:40;94615.44;;;22.86;42.56
11099;BME280;12223;42.650;23.364;2024-03-06T10:53:09;94631.03;;;23.00;42.61
11099;BME280;12223;42.650;23.364;2024-03-06T10:55:36;94620.16;;;23.02;43.87
11099;BME280;12223;42.650;23.364;2024-03-06T10:58:05;94620.59;;;23.04;43.80
11099;BME280;12223;42.650;23.364;2024-03-06T11:00:45;94616.09;;;23.04;44.40
11099;BME280;12223;42.650;23.364;2024-03-06T11:03:14;94619.94;;;23.07;44.80
11099;BME280;12223;42.650;23.364;2024-03-06T11:08:09;94599.63;;;23.07;45.70
11099;BME280;12223;42.650;23.364;2024-03-06T11:10:36;94603.03;;;23.08;46.03
11099;BME280;12223;42.650;23.364;2024-03-06T11:13:03;94592.19;;;23.09;45.85
11099;BME280;12223;42.650;23.364;2024-03-06T11:15:30;94587.69;;;23.10;45.91
11099;BME280;12223;42.650;23.364;2024-03-06T11:17:55;94585.38;;;23.08;45.50
11099;BME280;12223;42.650;23.364;2024-03-06T11:20:21;94579.97;;;23.05;45.40
11099;BME280;12223;42.650;23.364;2024-03-06T11:28:24;94578.81;;;23.14;45.80
11099;BME280;12223;42.650;23.364;2024-03-06T11:31:17;94570.25;;;23.17;45.10
11099;BME280;12223;42.650;23.364;2024-03-06T11:33:47;94564.53;;;23.15;45.54
11099;BME280;12223;42.650;23.364;2024-03-06T11:36:22;94555.53;;;23.16;45.29
11099;BME280;12223;42.650;23.364;2024-03-06T11:38:59;94563.13;;;23.18;45.64
11099;BME280;12223;42.650;23.364;2024-03-06T11:41:27;94559.84;;;23.21;46.07
11099;BME280;12223;42.650;23.364;2024-03-06T11:43:54;94560.28;;;23.23;45.51
11099;BME280;12223;42.650;23.364;2024-03-06T11:46:21;94557.22;;;23.21;45.75
11099;BME280;12223;42.650;23.364;2024-03-06T11:48:56;94551.16;;;23.20;45.86
11099;BME280;12223;42.650;23.364;2024-03-06T11:51:23;94551.28;;;23.24;45.34
11099;BME280;12223;42.650;23.364;2024-03-06T11:53:52;94554.38;;;23.26;45.79
11099;BME280;12223;42.650;23.364;2024-03-06T11:56:19;94547.66;;;23.28;45.19
11099;BME280;12223;42.650;23.364;2024-03-06T11:58:45;94537.44;;;23.27;45.34
11099;BME280;12223;42.650;23.364;2024-03-06T12:01:11;94539.28;;;23.26;40.32
11099;BME280;12223;42.650;23.364;2024-03-06T12:03:36;94538.75;;;23.21;41.48
11099;BME280;12223;42.650;23.364;2024-03-06T12:06:02;94541.50;;;23.24;42.46
11099;BME280;12223;42.650;23.364;2024-03-06T12:08:28;94544.03;;;23.33;43.55
11099;BME280;12223;42.650;23.364;2024-03-06T12:10:54;94537.78;;;23.38;43.95
11099;BME280;12223;42.650;23.364;2024-03-06T12:13:24;94535.28;;;23.41;44.53
11099;BME280;12223;42.650;23.364;2024-03-06T12:15:49;94532.47;;;23.46;44.35
11099;BME280;12223;42.650;23.364;2024-03-06T12:18:17;94530.72;;;23.50;45.29
11099;BME280;12223;42.650;23.364;2024-03-06T12:20:42;94528.94;;;23.54;44.86
11099;BME280;12223;42.650;23.364;2024-03-06T12:23:19;94526.09;;;23.59;45.21
11099;BME280;12223;42.650;23.364;2024-03-06T12:25:46;94531.16;;;23.64;45.08
11099;BME280;12223;42.650;23.364;2024-03-06T12:28:11;94529.75;;;23.67;46.14
11099;BME280;12223;42.650;23.364;2024-03-06T12:30:41;94523.03;;;23.69;45.93
11099;BME280;12223;42.650;23.364;2024-03-06T12:33:08;94516.22;;;23.68;45.78
11099;BME280;12223;42.650;23.364;2024-03-06T12:35:33;94518.31;;;23.75;46.20
11099;BME280;12223;42.650;23.364;2024-03-06T12:37:59;94503.16;;;23.72;46.68
11099;BME280;12223;42.650;23.364;2024-03-06T12:40:24;94510.19;;;23.80;45.75
11099;BME280;12223;42.650;23.364;2024-03-06T12:42:50;94508.00;;;23.82;46.59
11099;BME280;12223;42.650;23.364;2024-03-06T12:45:18;94518.56;;;23.82;46.52
11099;BME280;12223;42.650;23.364;2024-03-06T12:47:44;94512.19;;;23.83;46.85
11099;BME280;12223;42.650;23.364;2024-03-06T12:50:11;94511.81;;;23.85;46.29
11099;BME280;12223;42.650;23.364;2024-03-06T12:52:37;94513.38;;;23.86;46.79
11099;BME280;12223;42.650;23.364;2024-03-06T12:55:03;94514.91;;;23.87;46.86